createdAt,value
2022-12-25T00:02:01.673Z,100881.59
2022-12-25T00:04:29.401Z,100892.91
2022-12-25T00:06:59.480Z,100894.59
2022-12-25T00:09:27.595Z,100892.00
2022-12-25T00:11:55.585Z,100887.69
2022-12-25T00:14:23.475Z,100896.34
2022-12-25T00:16:51.381Z,100891.97
2022-12-25T00:19:19.226Z,100896.31
2022-12-25T00:21:47.063Z,100891.13
2022-12-25T00:24:16.180Z,100898.06
2022-12-25T00:26:43.980Z,100896.34
2022-12-25T00:29:14.496Z,100892.88
2022-12-25T00:31:42.249Z,100898.06
2022-12-25T00:34:10.139Z,100892.84
2022-12-25T00:36:41.870Z,100884.19
2022-12-25T00:39:10.729Z,100889.41
2022-12-25T00:41:57.208Z,100889.41
2022-12-25T00:44:25.067Z,100892.00
2022-12-25T00:46:53.053Z,100891.16
2022-12-25T00:49:23.592Z,100892.00
2022-12-25T00:51:51.759Z,100896.34
2022-12-25T00:54:20.184Z,100892.88
2022-12-25T00:56:49.283Z,100893.75
2022-12-25T00:59:17.150Z,100905.91
2022-12-25T01:01:45.174Z,100902.41
2022-12-25T01:04:13.556Z,100900.72
2022-12-25T01:06:41.633Z,100898.09
2022-12-25T01:09:27.383Z,100891.16
2022-12-25T01:11:56.482Z,100893.75
2022-12-25T01:14:24.210Z,100892.88
2022-12-25T01:16:52.451Z,100885.06
2022-12-25T01:19:20.674Z,100898.97
2022-12-25T01:21:48.442Z,100897.22
2022-12-25T01:24:16.191Z,100903.28
2022-12-25T01:26:44.052Z,100898.06
2022-12-25T01:29:13.300Z,100898.06
2022-12-25T01:31:41.290Z,100899.78
2022-12-25T01:34:09.194Z,100891.06
2022-12-25T01:36:37.404Z,100900.59
2022-12-25T01:39:06.424Z,100898.03
2022-12-25T01:41:34.260Z,100899.72
2022-12-25T01:44:06.473Z,100888.44
2022-12-25T01:46:37.601Z,100899.72
2022-12-25T01:49:10.586Z,100896.22
2022-12-25T01:51:43.076Z,100893.63
2022-12-25T01:54:15.229Z,100905.78
2022-12-25T01:56:45.168Z,100895.34
2022-12-25T01:59:17.094Z,100893.59
2022-12-25T02:01:47.417Z,100904.00
2022-12-25T02:04:24.652Z,100896.19
2022-12-25T02:06:52.737Z,100900.50
2022-12-25T02:09:20.642Z,100906.59
2022-12-25T02:12:00.502Z,100902.25
2022-12-25T02:14:30.380Z,100910.94
2022-12-25T02:17:08.290Z,100908.31
2022-12-25T02:20:04.317Z,100905.72
2022-12-25T02:22:45.682Z,100910.00
2022-12-25T02:25:28.774Z,100903.94
2022-12-25T02:28:20.921Z,100907.41
2022-12-25T02:30:55.916Z,100913.50
2022-12-25T02:33:47.278Z,100917.81
2022-12-25T02:36:21.874Z,100919.56
2022-12-25T02:39:12.536Z,100910.88
2022-12-25T02:41:44.726Z,100914.38
2022-12-25T02:44:36.794Z,100909.13
2022-12-25T02:47:39.878Z,100912.59
2022-12-25T02:50:27.268Z,100900.47
2022-12-25T02:53:16.459Z,100910.03
2022-12-25T02:56:05.606Z,100901.38
2022-12-25T02:58:56.050Z,100905.69
2022-12-25T03:01:52.370Z,100901.38
2022-12-25T03:04:42.782Z,100904.00
2022-12-25T03:07:15.653Z,100897.06
2022-12-25T03:10:05.891Z,100904.00
2022-12-25T03:12:41.748Z,100904.00
2022-12-25T03:15:29.617Z,100901.41
2022-12-25T03:18:02.723Z,100908.34
2022-12-25T03:20:48.889Z,100894.47
2022-12-25T03:23:38.176Z,100889.28
2022-12-25T03:26:24.270Z,100890.16
2022-12-25T03:28:52.076Z,100896.19
2022-12-25T03:31:30.010Z,100888.38
2022-12-25T03:34:27.564Z,100889.25
2022-12-25T03:37:20.759Z,100880.53
2022-12-25T03:40:22.218Z,100882.28
2022-12-25T03:43:12.697Z,100877.06
2022-12-25T03:46:01.924Z,100878.75
2022-12-25T03:48:50.243Z,100874.44
2022-12-25T03:51:41.970Z,100861.38
2022-12-25T03:54:30.210Z,100849.25
2022-12-25T03:57:16.927Z,100846.63
2022-12-25T04:00:02.162Z,100850.97
2022-12-25T04:02:55.394Z,100844.91
2022-12-25T04:05:41.018Z,100829.31
2022-12-25T04:08:27.552Z,100821.53
2022-12-25T04:11:12.890Z,100831.97
2022-12-25T04:13:58.186Z,100840.63
2022-12-25T04:16:43.518Z,100846.69
2022-12-25T04:19:28.676Z,100837.16
2022-12-25T04:22:13.917Z,100843.25
2022-12-25T04:25:00.619Z,100851.03
2022-12-25T04:27:46.096Z,100844.91
2022-12-25T04:30:31.463Z,100853.56
2022-12-25T04:33:16.890Z,100850.09
2022-12-25T04:36:04.599Z,100863.13
2022-12-25T04:38:32.691Z,100868.31
2022-12-25T04:41:02.519Z,100867.47
2022-12-25T04:43:30.959Z,100874.44
2022-12-25T04:46:00.944Z,100878.75
2022-12-25T04:48:31.179Z,100883.09
2022-12-25T04:50:59.063Z,100887.44
2022-12-25T04:53:26.959Z,100873.53
2022-12-25T04:56:03.351Z,100870.94
2022-12-25T04:58:32.846Z,100865.72
2022-12-25T05:01:01.346Z,100850.09
2022-12-25T05:03:29.657Z,100847.50
2022-12-25T05:05:57.715Z,100842.28
2022-12-25T05:08:25.883Z,100847.50
2022-12-25T05:10:53.632Z,100854.41
2022-12-25T05:13:22.775Z,100852.66
2022-12-25T05:15:50.921Z,100846.59
2022-12-25T05:18:18.789Z,100834.44
2022-12-25T05:20:53.356Z,100823.97
2022-12-25T05:23:21.301Z,100823.09
2022-12-25T05:25:49.133Z,100824.81
2022-12-25T05:28:16.993Z,100813.56
2022-12-25T05:30:46.234Z,100815.28
2022-12-25T05:33:14.360Z,100811.78
2022-12-25T05:35:42.327Z,100815.28
2022-12-25T05:38:10.129Z,100801.38
2022-12-25T05:40:41.018Z,100813.50
2022-12-25T05:43:09.219Z,100803.97
2022-12-25T05:45:37.447Z,100808.31
2022-12-25T05:48:07.054Z,100797.00
2022-12-25T05:50:37.515Z,100785.72
2022-12-25T05:53:08.382Z,100782.28
2022-12-25T05:55:36.641Z,100777.91
2022-12-25T05:58:05.502Z,100780.50
2022-12-25T06:00:33.597Z,100790.94
2022-12-25T06:03:01.892Z,100780.50
2022-12-25T06:05:31.523Z,100786.59
2022-12-25T06:07:59.340Z,100785.72
2022-12-25T06:10:27.087Z,100774.47
2022-12-25T06:12:55.657Z,100777.06
2022-12-25T06:15:23.386Z,100782.28
2022-12-25T06:17:51.149Z,100777.91
2022-12-25T06:20:19.055Z,100767.47
2022-12-25T06:22:48.242Z,100781.34
2022-12-25T06:25:16.783Z,100781.34
2022-12-25T06:27:45.162Z,100777.84
2022-12-25T06:30:13.284Z,100765.63
2022-12-25T06:32:41.070Z,100761.31
2022-12-25T06:35:09.616Z,100763.03
2022-12-25T06:37:37.491Z,100756.06
2022-12-25T06:40:08.788Z,100746.50
2022-12-25T06:42:36.657Z,100743.00
2022-12-25T06:45:04.806Z,100739.53
2022-12-25T06:47:32.743Z,100730.84
2022-12-25T06:50:00.840Z,100729.09
2022-12-25T06:52:28.653Z,100724.75
2022-12-25T06:54:56.383Z,100718.66
2022-12-25T06:57:25.628Z,100716.94
2022-12-25T06:59:55.510Z,100718.66
2022-12-25T07:02:25.445Z,100714.28
2022-12-25T07:04:54.038Z,100730.84
2022-12-25T07:07:23.678Z,100728.19
2022-12-25T07:09:51.921Z,100704.75
2022-12-25T07:12:23.341Z,100677.81
2022-12-25T07:14:55.304Z,100666.50
2022-12-25T07:17:23.791Z,100665.63
2022-12-25T07:19:51.914Z,100661.31
2022-12-25T07:22:19.733Z,100662.19
2022-12-25T07:24:47.504Z,100661.28
2022-12-25T07:27:15.269Z,100681.28
2022-12-25T07:29:43.047Z,100673.50
2022-12-25T07:32:12.233Z,100689.13
2022-12-25T07:34:40.042Z,100676.97
2022-12-25T07:37:07.946Z,100681.28
2022-12-25T07:39:36.199Z,100683.84
2022-12-25T07:42:04.385Z,100676.91
2022-12-25T07:44:32.484Z,100675.09
2022-12-25T07:47:00.297Z,100675.06
2022-12-25T07:49:29.496Z,100685.47
2022-12-25T07:51:57.690Z,100701.03
2022-12-25T07:54:25.453Z,100694.91
2022-12-25T07:56:53.555Z,100694.94
2022-12-25T07:59:21.896Z,100696.63
2022-12-25T08:01:50.849Z,100700.97
2022-12-25T08:04:19.387Z,100695.75
2022-12-25T08:06:48.561Z,100689.66
2022-12-25T08:09:16.452Z,100692.28
2022-12-25T08:11:47.624Z,100679.28
2022-12-25T08:14:16.293Z,100671.44
2022-12-25T08:16:44.519Z,100667.09
2022-12-25T08:19:12.503Z,100650.63
2022-12-25T08:21:40.277Z,100655.78
2022-12-25T08:24:10.719Z,100661.00
2022-12-25T08:26:38.600Z,100683.53
2022-12-25T08:29:06.350Z,100682.69
2022-12-25T08:31:37.227Z,100680.06
2022-12-25T08:34:07.324Z,100673.97
2022-12-25T08:36:35.362Z,100668.78
2022-12-25T08:39:03.622Z,100651.41
2022-12-25T08:41:36.194Z,100647.06
2022-12-25T08:44:04.470Z,100633.16
2022-12-25T08:46:32.396Z,100648.78
2022-12-25T08:49:00.345Z,100643.56
2022-12-25T08:51:28.145Z,100640.03
2022-12-25T08:54:00.313Z,100640.03
2022-12-25T08:56:29.243Z,100647.81
2022-12-25T08:58:58.397Z,100643.47
2022-12-25T09:01:26.228Z,100645.19
2022-12-25T09:03:54.191Z,100656.47
2022-12-25T09:06:21.971Z,100645.19
2022-12-25T09:08:50.117Z,100639.09
2022-12-25T09:11:20.075Z,100646.03
2022-12-25T09:13:48.402Z,100641.69
2022-12-25T09:16:20.563Z,100635.56
2022-12-25T09:18:49.049Z,100642.53
2022-12-25T09:21:17.901Z,100613.84
2022-12-25T09:23:46.024Z,100616.41
2022-12-25T09:26:15.803Z,100612.97
2022-12-25T09:28:50.217Z,100619.06
2022-12-25T09:31:21.632Z,100613.84
2022-12-25T09:33:49.608Z,100632.09
2022-12-25T09:36:17.449Z,100632.06
2022-12-25T09:38:45.310Z,100621.63
2022-12-25T09:41:18.114Z,100613.78
2022-12-25T09:43:50.764Z,100610.31
2022-12-25T09:46:24.439Z,100634.66
2022-12-25T09:49:03.423Z,100645.06
2022-12-25T09:51:35.487Z,100629.38
2022-12-25T09:54:11.881Z,100645.84
2022-12-25T09:56:39.613Z,100644.97
2022-12-25T09:59:17.223Z,100647.59
2022-12-25T10:01:59.471Z,100660.59
2022-12-25T10:04:43.486Z,100669.25
2022-12-25T10:07:19.366Z,100670.97
2022-12-25T10:10:04.406Z,100669.22
2022-12-25T10:12:43.318Z,100673.56
2022-12-25T10:15:32.445Z,100673.56
2022-12-25T10:18:17.398Z,100675.28
2022-12-25T10:20:52.284Z,100667.50
2022-12-25T10:23:23.827Z,100651.84
2022-12-25T10:25:53.561Z,100651.84
2022-12-25T10:28:27.402Z,100652.72
2022-12-25T10:30:57.131Z,100643.09
2022-12-25T10:33:26.552Z,100648.38
2022-12-25T10:35:54.393Z,100643.97
2022-12-25T10:38:22.505Z,100632.72
2022-12-25T10:41:18.898Z,100617.94
2022-12-25T10:43:50.097Z,100617.94
2022-12-25T10:46:19.505Z,100610.09
2022-12-25T10:48:51.539Z,100601.44
2022-12-25T10:51:29.767Z,100599.72
2022-12-25T10:53:58.210Z,100591.00
2022-12-25T10:56:26.263Z,100586.66
2022-12-25T10:59:05.788Z,100591.06
2022-12-25T11:01:34.138Z,100593.63
2022-12-25T11:04:03.671Z,100594.50
2022-12-25T11:06:34.453Z,100596.19
2022-12-25T11:09:03.881Z,100586.66
2022-12-25T11:11:32.246Z,100577.94
2022-12-25T11:14:03.029Z,100559.66
2022-12-25T11:16:33.012Z,100559.53
2022-12-25T11:19:01.710Z,100549.06
2022-12-25T11:21:32.983Z,100540.28
2022-12-25T11:24:02.403Z,100521.03
2022-12-25T11:26:32.949Z,100519.25
2022-12-25T11:29:00.960Z,100507.88
2022-12-25T11:31:37.868Z,100506.81
2022-12-25T11:34:11.498Z,100507.56
2022-12-25T11:36:45.746Z,100495.38
2022-12-25T11:39:22.909Z,100478.72
2022-12-25T11:41:54.056Z,100481.16
2022-12-25T11:44:31.705Z,100454.19
2022-12-25T11:47:08.438Z,100455.06
2022-12-25T11:49:48.714Z,100446.22
2022-12-25T11:52:20.886Z,100449.66
2022-12-25T11:54:55.851Z,100445.22
2022-12-25T11:57:27.444Z,100447.91
2022-12-25T12:00:00.861Z,100442.63
2022-12-25T12:02:36.170Z,100433.16
2022-12-25T12:05:12.877Z,100421.78
2022-12-25T12:07:53.198Z,100420.78
2022-12-25T12:10:29.296Z,100425.13
2022-12-25T12:13:07.279Z,100425.88
2022-12-25T12:15:43.101Z,100413.69
2022-12-25T12:18:20.213Z,100421.47
2022-12-25T12:20:59.196Z,100424.00
2022-12-25T12:23:29.689Z,100422.22
2022-12-25T12:25:58.331Z,100420.44
2022-12-25T12:28:28.719Z,100410.81
2022-12-25T12:31:03.147Z,100409.06
2022-12-25T12:33:37.499Z,100408.25
2022-12-25T12:36:06.863Z,100419.59
2022-12-25T12:38:37.071Z,100418.66
2022-12-25T12:41:08.482Z,100423.06
2022-12-25T12:43:38.882Z,100416.88
2022-12-25T12:46:15.823Z,100428.16
2022-12-25T12:48:45.542Z,100417.75
2022-12-25T12:51:15.420Z,100403.81
2022-12-25T12:53:44.713Z,100406.34
2022-12-25T12:56:16.187Z,100413.31
2022-12-25T12:58:49.828Z,100405.34
2022-12-25T13:01:40.223Z,100408.72
2022-12-25T13:04:33.629Z,100391.88
2022-12-25T13:07:12.043Z,100396.88
2022-12-25T13:09:55.296Z,100381.97
2022-12-25T13:12:23.819Z,100393.19
2022-12-25T13:14:51.858Z,100393.09
2022-12-25T13:17:23.718Z,100398.25
2022-12-25T13:19:56.197Z,100393.72
2022-12-25T13:22:27.107Z,100391.94
2022-12-25T13:25:00.994Z,100397.09
2022-12-25T13:27:31.147Z,100384.00
2022-12-25T13:29:59.548Z,100389.16
2022-12-25T13:32:30.661Z,100392.59
2022-12-25T13:34:59.740Z,100390.03
2022-12-25T13:37:29.670Z,100381.25
2022-12-25T13:40:00.834Z,100387.34
2022-12-25T13:42:31.308Z,100375.91
2022-12-25T13:45:01.740Z,100383.78
2022-12-25T13:47:32.582Z,100381.13
2022-12-25T13:50:02.700Z,100392.44
2022-12-25T13:52:35.088Z,100399.41
2022-12-25T13:55:11.803Z,100382.03
2022-12-25T13:57:41.992Z,100382.97
2022-12-25T14:00:19.438Z,100375.13
2022-12-25T14:02:48.024Z,100364.66
2022-12-25T14:05:27.652Z,100369.97
2022-12-25T14:07:57.319Z,100373.34
2022-12-25T14:10:29.366Z,100380.28
2022-12-25T14:13:00.730Z,100382.03
2022-12-25T14:15:31.054Z,100380.34
2022-12-25T14:17:59.686Z,100395.97
2022-12-25T14:20:31.659Z,100400.34
2022-12-25T14:23:01.136Z,100389.88
2022-12-25T14:25:34.390Z,100393.38
2022-12-25T14:28:08.887Z,100388.19
2022-12-25T14:30:37.397Z,100392.50
2022-12-25T14:33:07.622Z,100388.16
2022-12-25T14:35:35.537Z,100388.06
2022-12-25T14:38:03.259Z,100382.91
2022-12-25T14:40:35.913Z,100373.47
2022-12-25T14:43:05.581Z,100368.22
2022-12-25T14:45:34.985Z,100367.44
2022-12-25T14:48:19.802Z,100372.66
2022-12-25T14:50:56.559Z,100376.06
2022-12-25T14:53:29.261Z,100366.50
2022-12-25T14:55:58.455Z,100367.38
2022-12-25T14:58:29.971Z,100359.44
2022-12-25T15:01:00.243Z,100356.81
2022-12-25T15:03:30.576Z,100365.56
2022-12-25T15:06:01.218Z,100354.25
2022-12-25T15:08:30.354Z,100345.63
2022-12-25T15:11:02.304Z,100358.72
2022-12-25T15:13:32.423Z,100360.41
2022-12-25T15:16:04.849Z,100350.88
2022-12-25T15:18:37.269Z,100348.34
2022-12-25T15:21:05.150Z,100340.41
2022-12-25T15:23:33.023Z,100343.00
2022-12-25T15:26:02.140Z,100349.09
2022-12-25T15:28:29.825Z,100354.28
2022-12-25T15:30:57.689Z,100359.50
2022-12-25T15:33:25.438Z,100356.91
2022-12-25T15:35:53.203Z,100346.41
2022-12-25T15:38:20.988Z,100328.84
2022-12-25T15:40:48.764Z,100330.59
2022-12-25T15:43:39.857Z,100332.06
2022-12-25T15:46:06.678Z,100335.50
2022-12-25T15:48:34.472Z,100332.81
2022-12-25T15:51:02.251Z,100321.38
2022-12-25T15:53:30.072Z,100331.72
2022-12-25T15:55:58.059Z,100314.22
2022-12-25T15:58:27.167Z,100308.91
2022-12-25T16:00:55.080Z,100320.22
2022-12-25T16:03:22.858Z,100318.47
2022-12-25T16:05:51.178Z,100335.00
2022-12-25T16:08:18.927Z,100327.22
2022-12-25T16:10:46.792Z,100308.81
2022-12-25T16:13:14.517Z,100319.19
2022-12-25T16:15:44.892Z,100322.53
2022-12-25T16:18:12.736Z,100334.81
2022-12-25T16:20:41.112Z,100332.19
2022-12-25T16:23:08.900Z,100333.16
2022-12-25T16:25:36.612Z,100333.16
2022-12-25T16:28:06.017Z,100327.81
2022-12-25T16:30:33.906Z,100326.06
2022-12-25T16:33:03.473Z,100326.97
2022-12-25T16:35:31.629Z,100327.78
2022-12-25T16:37:59.690Z,100334.81
2022-12-25T16:40:27.685Z,100332.97
2022-12-25T16:42:56.220Z,100343.41
2022-12-25T16:45:24.193Z,100339.97
2022-12-25T16:47:51.915Z,100352.13
2022-12-25T16:50:22.330Z,100343.41
2022-12-25T16:52:50.117Z,100345.13
2022-12-25T16:55:18.050Z,100339.16
2022-12-25T16:57:47.736Z,100340.78
2022-12-25T17:00:16.358Z,100338.22
2022-12-25T17:02:44.652Z,100349.38
2022-12-25T17:05:12.536Z,100341.38
2022-12-25T17:07:42.963Z,100346.28
2022-12-25T17:10:12.675Z,100347.16
2022-12-25T17:12:40.527Z,100340.94
2022-12-25T17:15:09.302Z,100345.13
2022-12-25T17:17:37.081Z,100344.41
2022-12-25T17:20:05.799Z,100346.19
2022-12-25T17:22:33.633Z,100341.88
2022-12-25T17:25:02.741Z,100334.13
2022-12-25T17:27:30.706Z,100327.22
2022-12-25T17:29:58.423Z,100329.81
2022-12-25T17:32:26.200Z,100335.81
2022-12-25T17:34:53.962Z,100338.34
2022-12-25T17:37:21.687Z,100330.56
2022-12-25T17:39:49.449Z,100327.94
2022-12-25T17:42:18.533Z,100336.84
2022-12-25T17:44:47.195Z,100333.38
2022-12-25T17:47:14.933Z,100337.63
2022-12-25T17:49:42.794Z,100326.16
2022-12-25T17:52:10.583Z,100319.25
2022-12-25T17:54:39.124Z,100331.00
2022-12-25T17:57:07.020Z,100317.06
2022-12-25T17:59:36.137Z,100319.03
2022-12-25T18:02:04.036Z,100308.63
2022-12-25T18:04:31.852Z,100307.91
2022-12-25T18:06:59.559Z,100307.91
2022-12-25T18:09:27.747Z,100320.06
2022-12-25T18:11:56.090Z,100310.53
2022-12-25T18:14:23.823Z,100305.38
2022-12-25T18:16:53.512Z,100307.22
2022-12-25T18:19:21.392Z,100305.03
2022-12-25T18:21:49.328Z,100294.47
2022-12-25T18:24:17.128Z,100283.00
2022-12-25T18:26:45.659Z,100279.22
2022-12-25T18:29:13.412Z,100298.31
2022-12-25T18:31:43.410Z,100289.28
2022-12-25T18:34:12.533Z,100286.38
2022-12-25T18:36:40.531Z,100283.06
2022-12-25T18:39:08.290Z,100280.81
2022-12-25T18:41:56.044Z,100270.72
2022-12-25T18:44:23.822Z,100269.75
2022-12-25T18:46:51.634Z,100282.81
2022-12-25T18:49:20.727Z,100275.00
2022-12-25T18:51:50.484Z,100282.00
2022-12-25T18:54:19.219Z,100265.78
2022-12-25T18:56:52.121Z,100278.19
2022-12-25T18:59:22.223Z,100273.19
2022-12-25T19:01:50.161Z,100271.53
2022-12-25T19:04:18.370Z,100262.69
2022-12-25T19:06:49.547Z,100252.16
2022-12-25T19:09:17.337Z,100270.53
2022-12-25T19:11:46.761Z,100269.56
2022-12-25T19:14:15.780Z,100275.41
2022-12-25T19:16:43.715Z,100274.75
2022-12-25T19:19:11.483Z,100272.97
2022-12-25T19:21:39.264Z,100279.00
2022-12-25T19:24:08.702Z,100279.06
2022-12-25T19:26:37.562Z,100279.97
2022-12-25T19:29:05.872Z,100283.66
2022-12-25T19:31:33.606Z,100299.19
2022-12-25T19:34:01.401Z,100294.31
2022-12-25T19:36:29.143Z,100307.56
2022-12-25T19:38:56.996Z,100310.00
2022-12-25T19:41:26.336Z,100322.34
2022-12-25T19:43:54.071Z,100331.97
2022-12-25T19:46:25.461Z,100334.88
2022-12-25T19:48:53.754Z,100345.50
2022-12-25T19:51:24.328Z,100347.31
2022-12-25T19:53:52.784Z,100334.34
2022-12-25T19:56:20.864Z,100343.34
2022-12-25T19:58:50.042Z,100341.75
2022-12-25T20:01:20.831Z,100332.41
2022-12-25T20:03:49.792Z,100334.13
2022-12-25T20:06:24.775Z,100328.13
2022-12-25T20:08:53.838Z,100342.94
2022-12-25T20:11:22.328Z,100333.38
2022-12-25T20:13:51.654Z,100334.41
2022-12-25T20:16:19.496Z,100337.03
2022-12-25T20:18:47.251Z,100333.63
2022-12-25T20:21:17.739Z,100336.31
2022-12-25T20:23:47.132Z,100336.56
2022-12-25T20:26:17.599Z,100325.34
2022-12-25T20:28:46.208Z,100326.25
2022-12-25T20:31:17.685Z,100330.72
2022-12-25T20:33:46.301Z,100337.00
2022-12-25T20:36:14.241Z,100332.72
2022-12-25T20:38:42.393Z,100336.38
2022-12-25T20:41:29.346Z,100327.78
2022-12-25T20:43:58.235Z,100309.66
2022-12-25T20:46:28.118Z,100327.84
2022-12-25T20:48:55.947Z,100319.28
2022-12-25T20:51:26.058Z,100330.63
2022-12-25T20:53:54.119Z,100332.38
2022-12-25T20:56:23.691Z,100328.03
2022-12-25T20:58:55.081Z,100328.31
2022-12-25T21:01:23.075Z,100328.31
2022-12-25T21:03:52.732Z,100321.28
2022-12-25T21:06:20.638Z,100327.38
2022-12-25T21:08:48.904Z,100319.59
2022-12-25T21:11:17.928Z,100323.16
2022-12-25T21:13:46.996Z,100320.50
2022-12-25T21:16:18.354Z,100340.81
2022-12-25T21:18:46.781Z,100346.19
2022-12-25T21:21:16.826Z,100348.81
2022-12-25T21:23:45.508Z,100349.78
2022-12-25T21:26:16.705Z,100355.00
2022-12-25T21:28:44.429Z,100345.41
2022-12-25T21:31:12.684Z,100362.03
2022-12-25T21:33:51.765Z,100363.00
2022-12-25T21:36:24.067Z,100373.38
2022-12-25T21:38:58.247Z,100367.13
2022-12-25T21:41:27.143Z,100370.59
2022-12-25T21:43:55.225Z,100371.41
2022-12-25T21:46:23.148Z,100377.34
2022-12-25T21:48:51.649Z,100378.88
2022-12-25T21:51:40.893Z,100376.91
2022-12-25T21:54:09.018Z,100381.22
2022-12-25T21:56:43.452Z,100377.69
2022-12-25T21:59:14.377Z,100377.69
2022-12-25T22:01:42.312Z,100375.81
2022-12-25T22:04:12.319Z,100383.44
2022-12-25T22:06:59.284Z,100390.38
2022-12-25T22:09:27.603Z,100386.84
2022-12-25T22:12:13.015Z,100384.97
2022-12-25T22:14:54.681Z,100383.19
2022-12-25T22:17:42.008Z,100384.81
2022-12-25T22:20:11.947Z,100380.94
2022-12-25T22:22:41.163Z,100378.25
2022-12-25T22:25:10.685Z,100399.16
2022-12-25T22:27:39.618Z,100399.13
2022-12-25T22:30:10.234Z,100398.97
2022-12-25T22:32:38.153Z,100385.78
2022-12-25T22:35:07.199Z,100394.44
2022-12-25T22:37:35.900Z,100408.22
2022-12-25T22:40:06.511Z,100403.94
2022-12-25T22:42:35.032Z,100410.13
2022-12-25T22:45:03.327Z,100410.81
2022-12-25T22:47:31.238Z,100414.22
2022-12-25T22:49:59.032Z,100407.88
2022-12-25T22:52:27.347Z,100408.81
2022-12-25T22:54:55.090Z,100414.06
2022-12-25T22:57:24.177Z,100407.06
2022-12-25T22:59:53.053Z,100410.31
2022-12-25T23:02:21.399Z,100415.47
2022-12-25T23:04:49.427Z,100407.66
2022-12-25T23:07:17.569Z,100411.06
2022-12-25T23:09:46.060Z,100405.66
2022-12-25T23:12:27.737Z,100408.16
2022-12-25T23:14:56.914Z,100417.75
2022-12-25T23:17:42.349Z,100424.66
2022-12-25T23:20:29.202Z,100419.63
2022-12-25T23:23:14.594Z,100417.06
2022-12-25T23:26:00.070Z,100418.84
2022-12-25T23:28:46.089Z,100417.19
2022-12-25T23:31:15.332Z,100405.72
2022-12-25T23:33:43.123Z,100417.88
2022-12-25T23:36:10.939Z,100424.84
2022-12-25T23:38:38.749Z,100423.75
2022-12-25T23:41:06.701Z,100420.44
2022-12-25T23:43:34.530Z,100412.63
2022-12-25T23:46:02.374Z,100411.09
2022-12-25T23:48:31.522Z,100411.16
2022-12-25T23:51:03.325Z,100424.25
2022-12-25T23:53:31.075Z,100417.16
2022-12-25T23:55:59.583Z,100413.84
2022-12-25T23:58:29.009Z,100412.91
